Time;durP1;ratioP1;P1;durP2;ratioP2;P2;SDS_P1;SDS_P2;PMS_P1;PMS_P2;Temp;Humidity;BMP_temperature;BMP_pressure;BME280_temperature;BME280_humidity;BME280_pressure;Samples;Min_cycle;Max_cycle;Signal;HPM_P1;HPM_P2
2022/05/17 00:01:58;;;;;;;5.60;1.77;;;17.30;79.10;;;;;;5064390;28;20021;-72
2022/05/17 00:04:24;;;;;;;4.05;1.60;;;17.20;78.60;;;;;;5071528;28;20085;-72
2022/05/17 00:06:50;;;;;;;3.75;1.58;;;17.20;79.00;;;;;;5070970;28;20034;-72
2022/05/17 00:09:17;;;;;;;3.88;1.50;;;17.10;79.00;;;;;;5073589;28;20044;-72
2022/05/17 00:11:45;;;;;;;1.90;1.60;;;17.10;79.30;;;;;;5070873;28;20107;-72
2022/05/17 00:14:12;;;;;;;2.85;1.90;;;17.10;79.40;;;;;;5071351;28;20734;-72
2022/05/17 00:16:39;;;;;;;2.90;1.50;;;17.10;79.90;;;;;;5068603;28;20491;-72
2022/05/17 00:19:05;;;;;;;1.95;1.35;;;17.00;79.00;;;;;;5064275;28;20032;-72
2022/05/17 00:21:31;;;;;;;2.90;1.75;;;17.10;78.60;;;;;;5072143;28;20545;-72
2022/05/17 00:23:57;;;;;;;3.92;1.60;;;17.10;78.00;;;;;;5074608;28;20036;-72
2022/05/17 00:26:22;;;;;;;5.53;1.60;;;17.00;77.10;;;;;;5074210;28;20434;-72
2022/05/17 00:28:48;;;;;;;2.22;1.50;;;17.10;76.80;;;;;;5073935;28;20145;-72
2022/05/17 00:31:14;;;;;;;3.40;1.33;;;17.10;76.50;;;;;;5069721;28;20039;-72
2022/05/17 00:33:39;;;;;;;3.50;1.55;;;17.00;76.30;;;;;;5067516;28;20078;-72
2022/05/17 00:36:06;;;;;;;4.18;1.60;;;17.00;76.80;;;;;;5063523;28;20086;-73
2022/05/17 00:38:32;;;;;;;2.00;1.60;;;17.00;77.80;;;;;;5067314;28;20036;-72
2022/05/17 00:40:57;;;;;;;2.13;1.63;;;17.00;77.80;;;;;;5073841;28;20032;-72
2022/05/17 00:46:36;;;;;;;3.92;1.70;;;17.00;76.20;;;;;;5074753;28;20036;-72
2022/05/17 00:49:04;;;;;;;3.72;1.77;;;17.00;76.90;;;;;;5067649;28;20028;-72
2022/05/17 00:51:31;;;;;;;2.50;1.48;;;17.00;77.70;;;;;;5064953;28;20016;-72
2022/05/17 00:54:05;;;;;;;3.28;1.70;;;17.00;77.50;;;;;;5065338;28;20040;-72
2022/05/17 00:56:31;;;;;;;2.03;1.50;;;17.00;77.00;;;;;;5071529;28;20516;-72
2022/05/17 00:59:01;;;;;;;5.75;1.60;;;17.00;75.10;;;;;;5070566;28;20033;-73
2022/05/17 01:01:31;;;;;;;3.35;1.77;;;17.00;74.80;;;;;;5076744;28;20130;-72
2022/05/17 01:04:10;;;;;;;4.97;1.50;;;17.00;73.90;;;;;;5074749;28;20040;-72
2022/05/17 01:06:43;;;;;;;3.05;1.77;;;17.00;74.80;;;;;;5067591;28;20514;-72
2022/05/17 01:09:12;;;;;;;2.85;1.63;;;16.90;75.40;;;;;;5066902;28;20032;-72
2022/05/17 01:11:38;;;;;;;3.00;1.45;;;16.90;75.60;;;;;;5067648;28;20036;-72
2022/05/17 01:17:06;;;;;;;2.25;1.60;;;16.90;76.20;;;;;;5005281;28;20190;-72
2022/05/17 01:19:32;;;;;;;3.15;1.67;;;16.80;77.70;;;;;;5053062;28;20024;-74
2022/05/17 01:21:58;;;;;;;2.35;1.48;;;16.70;78.30;;;;;;5077329;28;20031;-73
2022/05/17 01:24:25;;;;;;;4.38;1.63;;;16.60;79.40;;;;;;5070541;28;20481;-73
2022/05/17 01:27:03;;;;;;;3.30;1.67;;;16.50;79.10;;;;;;5068741;28;20040;-73
2022/05/17 01:29:37;;;;;;;2.53;1.70;;;16.40;80.00;;;;;;5070564;28;20579;-73
2022/05/17 01:32:03;;;;;;;3.20;1.75;;;16.40;81.40;;;;;;5070051;28;20025;-72
2022/05/17 01:34:29;;;;;;;4.43;1.67;;;16.30;81.50;;;;;;5066898;28;20024;-73
2022/05/17 01:36:55;;;;;;;2.63;1.80;;;16.30;82.30;;;;;;5062023;28;20392;-72
2022/05/17 01:39:20;;;;;;;2.72;1.38;;;16.30;83.00;;;;;;5065738;28;20029;-72
2022/05/17 01:41:47;;;;;;;2.88;1.75;;;16.20;82.00;;;;;;5071319;28;20392;-72
2022/05/17 01:44:12;;;;;;;3.42;1.67;;;16.20;81.90;;;;;;5070542;28;20036;-72
2022/05/17 01:46:38;;;;;;;4.65;1.95;;;16.20;81.80;;;;;;5072515;28;20028;-72
2022/05/17 01:49:04;;;;;;;5.03;1.58;;;16.10;82.80;;;;;;5069355;28;20547;-72
2022/05/17 01:51:29;;;;;;;4.57;1.63;;;16.10;83.90;;;;;;5066415;28;20833;-72
2022/05/17 01:53:55;;;;;;;2.08;1.50;;;16.10;83.60;;;;;;5062040;28;20059;-72
2022/05/17 01:56:21;;;;;;;3.25;1.45;;;16.10;82.70;;;;;;5068839;28;20040;-72
2022/05/17 01:58:47;;;;;;;2.58;1.60;;;16.20;81.50;;;;;;5072974;28;20043;-72
2022/05/17 02:01:13;;;;;;;3.95;1.55;;;16.20;81.80;;;;;;5072342;28;20032;-72
2022/05/17 02:03:39;;;;;;;2.78;1.55;;;16.20;82.20;;;;;;5072825;28;20035;-71
2022/05/17 02:06:05;;;;;;;4.25;1.70;;;16.20;82.90;;;;;;5066872;28;20168;-72
2022/05/17 02:08:30;;;;;;;3.50;1.55;;;16.10;84.20;;;;;;5066478;28;20031;-72
2022/05/17 02:10:56;;;;;;;3.00;1.63;;;16.10;84.40;;;;;;5065066;28;20473;-72
2022/05/17 02:13:22;;;;;;;2.13;1.50;;;16.10;84.10;;;;;;5069743;28;20147;-72
2022/05/17 02:15:48;;;;;;;5.05;1.90;;;16.10;83.70;;;;;;5073089;28;20035;-72
2022/05/17 02:18:14;;;;;;;3.78;1.67;;;16.10;84.20;;;;;;5075839;28;20879;-72
2022/05/17 02:20:39;;;;;;;2.25;1.90;;;16.00;84.50;;;;;;5073397;28;20028;-72
2022/05/17 02:23:07;;;;;;;3.20;1.50;;;16.00;83.70;;;;;;5069132;28;20025;-72
2022/05/17 02:25:34;;;;;;;2.47;1.60;;;15.90;84.40;;;;;;5074833;28;20032;-72
2022/05/17 02:28:07;;;;;;;4.70;1.83;;;15.90;85.70;;;;;;5062242;28;20369;-72
2022/05/17 02:30:33;;;;;;;2.92;1.85;;;15.80;86.70;;;;;;5069487;28;20330;-72
2022/05/17 02:32:59;;;;;;;4.03;1.60;;;15.70;87.50;;;;;;5069470;28;20760;-72
2022/05/17 02:35:25;;;;;;;5.25;2.08;;;15.60;88.30;;;;;;5075541;28;20028;-72
2022/05/17 02:37:51;;;;;;;2.17;1.73;;;15.50;89.20;;;;;;5075425;28;20036;-72
2022/05/17 02:40:17;;;;;;;4.10;1.92;;;15.40;90.50;;;;;;5074860;28;20036;-72
2022/05/17 02:42:43;;;;;;;4.03;2.03;;;15.30;90.90;;;;;;5072472;28;20038;-72
2022/05/17 02:45:09;;;;;;;3.70;1.85;;;15.20;91.30;;;;;;5075336;28;20074;-72
2022/05/17 02:47:34;;;;;;;3.22;2.35;;;15.10;91.70;;;;;;5076501;28;20902;-72
2022/05/17 02:50:00;;;;;;;2.83;1.77;;;15.00;92.10;;;;;;5077299;28;20026;-72
2022/05/17 02:52:26;;;;;;;6.88;2.20;;;14.90;92.30;;;;;;5071561;28;20040;-72
2022/05/17 02:54:52;;;;;;;3.80;2.00;;;14.90;92.50;;;;;;5076575;28;20070;-72
2022/05/17 02:57:18;;;;;;;8.70;2.40;;;14.80;92.80;;;;;;5065063;28;20137;-72
2022/05/17 02:59:43;;;;;;;4.43;2.20;;;14.70;93.00;;;;;;5072510;28;20437;-72
2022/05/17 03:02:09;;;;;;;4.75;2.25;;;14.70;93.20;;;;;;5071125;28;20097;-72
2022/05/17 03:04:35;;;;;;;6.50;2.47;;;14.60;93.50;;;;;;5077579;28;20395;-72
2022/05/17 03:07:01;;;;;;;5.93;2.40;;;14.60;93.80;;;;;;5075509;28;20020;-72
2022/05/17 03:09:26;;;;;;;2.67;1.80;;;14.60;94.10;;;;;;5074035;28;20071;-72
2022/05/17 03:11:52;;;;;;;6.20;2.70;;;14.60;94.30;;;;;;5078409;28;20103;-72
2022/05/17 03:14:18;;;;;;;4.82;2.42;;;14.60;94.50;;;;;;5081229;28;20024;-72
2022/05/17 03:16:45;;;;;;;4.28;2.70;;;14.60;94.60;;;;;;5075505;28;20125;-72
2022/05/17 03:19:11;;;;;;;4.93;2.50;;;14.60;94.70;;;;;;5074853;28;20101;-72
2022/05/17 03:21:37;;;;;;;5.07;2.45;;;14.60;94.70;;;;;;5078327;28;20155;-72
2022/05/17 03:24:03;;;;;;;8.07;2.78;;;14.50;94.70;;;;;;5079514;28;20028;-72
2022/05/17 03:26:29;;;;;;;3.78;2.33;;;14.50;94.80;;;;;;5078720;28;20043;-72
2022/05/17 03:28:58;;;;;;;4.75;2.50;;;14.50;95.00;;;;;;5077644;28;20024;-71
2022/05/17 03:31:25;;;;;;;3.90;2.30;;;14.50;95.00;;;;;;5078730;28;20036;-72
2022/05/17 03:33:50;;;;;;;4.28;2.67;;;14.50;95.20;;;;;;5078473;28;20020;-72
2022/05/17 03:36:16;;;;;;;5.63;2.70;;;14.50;95.20;;;;;;5078555;28;20032;-72
2022/05/17 03:38:42;;;;;;;5.65;2.45;;;14.50;95.20;;;;;;5078617;28;20063;-72
2022/05/17 03:41:07;;;;;;;7.55;2.67;;;14.60;95.30;;;;;;5079251;28;20051;-71
2022/05/17 03:43:34;;;;;;;6.72;2.78;;;14.60;95.50;;;;;;5076426;28;20032;-71
2022/05/17 03:46:00;;;;;;;5.15;2.78;;;14.50;95.50;;;;;;5074840;28;20033;-71
2022/05/17 03:48:28;;;;;;;4.95;2.88;;;14.50;95.60;;;;;;5080134;28;20043;-71
2022/05/17 03:50:54;;;;;;;4.47;2.83;;;14.60;95.70;;;;;;5076742;28;20824;-71
2022/05/17 03:53:20;;;;;;;5.63;3.20;;;14.60;95.50;;;;;;5076309;28;20060;-71
2022/05/17 03:55:46;;;;;;;4.20;2.75;;;14.60;95.60;;;;;;5076715;28;20389;-71
2022/05/17 03:58:12;;;;;;;5.47;3.20;;;14.50;95.60;;;;;;5079590;28;20028;-71
2022/05/17 04:00:39;;;;;;;4.55;3.08;;;14.50;95.50;;;;;;5074753;28;20039;-70
2022/05/17 04:03:05;;;;;;;5.20;2.53;;;14.50;95.50;;;;;;5078882;28;20036;-71
2022/05/17 04:05:31;;;;;;;8.98;3.10;;;14.40;95.60;;;;;;5076203;28;20523;-71
2022/05/17 04:07:56;;;;;;;5.32;2.53;;;14.40;95.70;;;;;;5074304;28;20036;-70
2022/05/17 04:10:23;;;;;;;13.32;3.80;;;14.40;95.90;;;;;;5075642;28;20093;-71
2022/05/17 04:12:49;;;;;;;6.25;2.83;;;14.40;96.00;;;;;;5076875;28;20020;-71
2022/05/17 04:15:20;;;;;;;5.35;3.00;;;14.40;96.00;;;;;;5075403;28;20039;-71
2022/05/17 04:17:46;;;;;;;6.43;3.22;;;14.40;96.00;;;;;;5070110;28;20029;-71
2022/05/17 04:20:13;;;;;;;6.82;3.58;;;14.30;96.10;;;;;;5074061;28;20034;-71
2022/05/17 04:22:46;;;;;;;12.35;4.18;;;14.30;96.10;;;;;;5080008;28;20024;-71
2022/05/17 04:25:13;;;;;;;6.00;3.17;;;14.30;96.00;;;;;;5069120;28;20036;-71
2022/05/17 04:27:39;;;;;;;5.90;3.13;;;14.30;96.20;;;;;;5075009;28;20053;-71
2022/05/17 04:30:05;;;;;;;7.45;3.88;;;14.20;96.20;;;;;;5079045;28;20101;-70
2022/05/17 04:32:31;;;;;;;5.90;3.35;;;14.20;96.30;;;;;;5072932;28;20040;-71
2022/05/17 04:34:58;;;;;;;4.93;3.10;;;14.20;96.40;;;;;;5072727;28;20028;-71
2022/05/17 04:37:23;;;;;;;6.03;3.25;;;14.20;96.50;;;;;;5076030;28;20028;-71
2022/05/17 04:39:49;;;;;;;5.35;3.35;;;14.10;96.50;;;;;;5077395;28;20016;-71
2022/05/17 04:42:15;;;;;;;6.78;3.53;;;14.10;96.40;;;;;;5072111;28;20039;-71
2022/05/17 04:44:40;;;;;;;6.72;2.95;;;14.10;96.50;;;;;;5080027;28;20546;-71
2022/05/17 04:47:09;;;;;;;7.30;3.10;;;14.10;96.50;;;;;;5075083;28;20077;-71
2022/05/17 04:49:35;;;;;;;8.35;3.72;;;14.10;96.60;;;;;;5077484;28;20039;-71
2022/05/17 04:52:01;;;;;;;6.80;3.45;;;14.10;96.70;;;;;;5072342;28;20039;-71
2022/05/17 04:54:27;;;;;;;9.15;3.65;;;14.00;96.70;;;;;;5073600;28;20035;-71
2022/05/17 04:56:53;;;;;;;6.25;3.60;;;14.10;96.90;;;;;;5075250;28;20032;-71
2022/05/17 04:59:19;;;;;;;6.45;3.50;;;14.10;97.00;;;;;;5075165;28;20042;-71
2022/05/17 05:01:46;;;;;;;5.30;3.20;;;14.10;97.00;;;;;;5071835;28;20031;-71
2022/05/17 05:04:12;;;;;;;6.43;3.47;;;14.10;97.10;;;;;;5075546;28;20043;-72
2022/05/17 05:06:37;;;;;;;8.23;3.63;;;14.10;97.30;;;;;;5076673;28;20020;-71
2022/05/17 05:09:04;;;;;;;8.50;3.20;;;14.20;97.30;;;;;;5073250;28;20020;-73
2022/05/17 05:11:30;;;;;;;5.13;3.58;;;14.20;97.40;;;;;;5075165;28;20112;-73
2022/05/17 05:13:56;;;;;;;6.57;3.38;;;14.30;97.50;;;;;;5068971;28;20028;-73
2022/05/17 05:16:21;;;;;;;7.97;3.58;;;14.40;97.40;;;;;;5071833;28;20036;-73
2022/05/17 05:18:47;;;;;;;8.52;3.30;;;14.50;97.50;;;;;;5071844;28;20042;-73
2022/05/17 05:21:15;;;;;;;6.57;3.65;;;14.50;97.50;;;;;;5075349;28;20039;-74
2022/05/17 05:23:43;;;;;;;8.57;3.55;;;14.50;97.50;;;;;;5070899;28;20035;-74
2022/05/17 05:26:10;;;;;;;6.85;3.50;;;14.60;97.40;;;;;;5075039;28;20488;-74
2022/05/17 05:28:37;;;;;;;7.00;3.70;;;14.60;97.10;;;;;;5074707;28;20575;-74
2022/05/17 05:31:06;;;;;;;6.50;3.40;;;14.60;97.20;;;;;;5075308;28;20055;-74
2022/05/17 05:33:34;;;;;;;6.18;3.50;;;14.60;97.30;;;;;;5067819;28;20087;-74
2022/05/17 05:36:02;;;;;;;6.03;4.20;;;14.70;97.50;;;;;;5073982;28;20035;-74
2022/05/17 05:38:27;;;;;;;7.15;3.10;;;14.70;97.40;;;;;;5075911;28;20028;-74
2022/05/17 05:40:53;;;;;;;8.07;3.90;;;14.80;97.50;;;;;;5076889;28;20538;-74
2022/05/17 05:43:19;;;;;;;5.50;3.90;;;14.80;97.50;;;;;;5070887;28;20128;-73
2022/05/17 05:45:45;;;;;;;8.60;4.13;;;14.90;97.40;;;;;;5077351;28;20841;-74
2022/05/17 05:48:11;;;;;;;6.57;4.05;;;15.00;97.40;;;;;;5080081;28;20024;-74
2022/05/17 05:50:37;;;;;;;5.28;3.83;;;15.20;97.20;;;;;;5068026;28;20619;-74
2022/05/17 05:53:11;;;;;;;8.55;4.60;;;15.30;97.10;;;;;;5071067;28;20032;-74
2022/05/17 05:55:38;;;;;;;7.65;4.40;;;15.50;97.10;;;;;;5075086;28;20028;-74
2022/05/17 05:58:06;;;;;;;8.98;4.65;;;15.60;96.80;;;;;;5071717;28;20020;-72
2022/05/17 06:00:33;;;;;;;8.27;4.00;;;15.80;96.40;;;;;;5073249;28;20036;-73
2022/05/17 06:02:59;;;;;;;7.13;4.07;;;15.80;96.10;;;;;;5069728;28;20070;-73
2022/05/17 06:05:26;;;;;;;7.85;3.92;;;15.90;96.20;;;;;;5071413;28;20685;-73
2022/05/17 06:07:52;;;;;;;6.70;3.83;;;15.90;96.60;;;;;;5071264;28;20035;-74
2022/05/17 06:10:19;;;;;;;5.57;4.05;;;15.90;96.30;;;;;;5076128;28;20036;-74
2022/05/17 06:12:45;;;;;;;8.52;4.47;;;15.90;96.20;;;;;;5073424;28;20027;-73
2022/05/17 06:15:11;;;;;;;8.80;3.80;;;16.00;96.10;;;;;;5071207;28;20652;-74
2022/05/17 06:17:38;;;;;;;6.82;4.25;;;16.00;96.00;;;;;;5075905;28;20028;-74
2022/05/17 06:20:06;;;;;;;9.13;4.03;;;16.10;95.90;;;;;;5076542;28;20558;-73
2022/05/17 06:22:32;;;;;;;12.57;4.25;;;16.20;95.60;;;;;;5055231;28;20059;-74
2022/05/17 06:24:58;;;;;;;6.82;3.92;;;16.20;95.60;;;;;;5069147;28;20135;-73
2022/05/17 06:27:24;;;;;;;5.82;3.90;;;16.30;95.30;;;;;;5075694;28;20387;-73
2022/05/17 06:29:52;;;;;;;6.65;3.45;;;16.20;95.30;;;;;;5074282;28;20027;-73
2022/05/17 06:32:18;;;;;;;7.75;3.70;;;16.20;95.30;;;;;;5069934;28;20032;-74
2022/05/17 06:34:47;;;;;;;5.55;3.53;;;16.30;95.20;;;;;;5074999;28;20452;-73
2022/05/17 06:37:13;;;;;;;7.82;3.67;;;16.20;95.20;;;;;;5066939;28;20042;-73
2022/05/17 06:39:40;;;;;;;8.82;4.03;;;16.30;95.10;;;;;;5076505;28;20028;-72
2022/05/17 06:42:06;;;;;;;7.18;3.65;;;16.40;95.00;;;;;;5074941;28;20047;-73
2022/05/17 06:44:33;;;;;;;8.50;3.75;;;16.40;95.00;;;;;;5074149;28;20033;-73
2022/05/17 06:46:59;;;;;;;5.85;4.00;;;16.50;94.90;;;;;;5073690;28;20036;-73
2022/05/17 06:49:26;;;;;;;10.13;4.80;;;16.60;95.00;;;;;;5075536;28;20546;-74
2022/05/17 06:51:52;;;;;;;6.50;4.32;;;16.60;94.90;;;;;;5075266;28;20037;-73
2022/05/17 06:54:18;;;;;;;7.53;4.85;;;16.70;95.00;;;;;;5075912;28;20035;-73
2022/05/17 06:56:44;;;;;;;6.82;4.18;;;16.80;95.00;;;;;;5070506;28;20139;-73
2022/05/17 06:59:10;;;;;;;6.03;4.05;;;16.90;94.80;;;;;;5075497;28;20049;-74
2022/05/17 07:01:36;;;;;;;6.07;4.07;;;17.00;94.80;;;;;;5073208;28;20071;-74
2022/05/17 07:04:02;;;;;;;10.77;5.05;;;17.10;94.60;;;;;;5079997;28;20146;-74
2022/05/17 07:06:28;;;;;;;6.10;4.60;;;17.20;94.40;;;;;;5078776;28;20131;-74
2022/05/17 07:08:54;;;;;;;7.93;4.25;;;17.30;94.30;;;;;;5066883;28;20082;-74
2022/05/17 07:14:04;;;;;;;9.68;4.82;;;17.40;94.20;;;;;;5075402;28;20024;-74
2022/05/17 07:16:30;;;;;;;8.77;4.90;;;17.40;93.90;;;;;;5073927;28;20104;-74
2022/05/17 07:18:56;;;;;;;8.07;4.70;;;17.30;93.80;;;;;;5077900;28;20035;-74
2022/05/17 07:21:22;;;;;;;6.00;4.45;;;17.30;94.00;;;;;;5077192;28;20039;-74
2022/05/17 07:23:49;;;;;;;6.53;4.40;;;17.40;93.80;;;;;;5069146;28;20923;-74
2022/05/17 07:26:15;;;;;;;5.53;3.80;;;17.60;93.70;;;;;;5069237;28;20086;-74
2022/05/17 07:28:45;;;;;;;9.50;4.13;;;17.70;93.30;;;;;;5076810;28;20379;-74
2022/05/17 07:31:12;;;;;;;6.40;4.25;;;17.90;93.30;;;;;;5077305;28;20028;-74
2022/05/17 07:33:40;;;;;;;12.90;4.63;;;18.20;92.90;;;;;;5072635;28;20024;-74
2022/05/17 07:36:07;;;;;;;8.50;3.80;;;18.50;92.30;;;;;;5079277;28;20031;-73
2022/05/17 07:38:34;;;;;;;7.25;4.30;;;18.70;91.90;;;;;;5076109;28;20051;-74
2022/05/17 07:41:01;;;;;;;8.40;4.13;;;18.80;91.70;;;;;;5077091;28;20032;-74
2022/05/17 07:43:26;;;;;;;6.20;3.40;;;18.80;91.60;;;;;;5070617;28;20063;-74
2022/05/17 07:45:53;;;;;;;5.03;3.60;;;18.70;91.30;;;;;;5071579;28;20024;-73
2022/05/17 07:48:22;;;;;;;5.78;3.70;;;18.50;91.60;;;;;;5072724;28;20027;-74
2022/05/17 07:50:49;;;;;;;6.18;3.85;;;18.40;91.90;;;;;;5073581;28;20056;-73
2022/05/17 07:53:17;;;;;;;5.15;3.50;;;18.10;92.10;;;;;;5072243;28;20035;-74
2022/05/17 07:55:44;;;;;;;8.23;4.35;;;18.00;92.40;;;;;;5069693;28;20551;-74
2022/05/17 07:58:11;;;;;;;7.93;4.15;;;17.80;92.70;;;;;;5074539;28;20101;-74
2022/05/17 08:00:38;;;;;;;5.03;3.95;;;17.70;93.00;;;;;;5081200;28;20035;-75
2022/05/17 08:03:05;;;;;;;6.13;4.03;;;17.80;93.30;;;;;;5079539;28;20040;-74
2022/05/17 08:05:32;;;;;;;5.57;3.58;;;17.80;93.40;;;;;;5076312;28;20078;-74
2022/05/17 08:07:59;;;;;;;8.35;5.65;;;17.80;93.50;;;;;;5070418;28;20035;-74
2022/05/17 08:10:24;;;;;;;6.20;4.55;;;18.00;93.60;;;;;;5077409;28;20085;-73
2022/05/17 08:12:51;;;;;;;9.43;5.30;;;18.10;93.30;;;;;;5078941;28;20020;-74
2022/05/17 08:15:19;;;;;;;12.55;4.78;;;18.40;93.20;;;;;;5073715;28;20039;-75
2022/05/17 08:17:45;;;;;;;7.03;4.57;;;18.80;92.80;;;;;;5078448;28;20032;-76
2022/05/17 08:20:12;;;;;;;7.07;4.22;;;19.20;92.20;;;;;;5070645;28;20040;-73
2022/05/17 08:22:40;;;;;;;5.45;3.63;;;19.60;91.40;;;;;;5070181;28;20672;-72
2022/05/17 08:27:54;;;;;;;5.15;4.30;;;19.90;90.40;;;;;;5069071;28;20032;-72
2022/05/17 08:30:21;;;;;;;9.05;4.85;;;19.90;90.10;;;;;;5076147;28;20034;-73
2022/05/17 08:35:51;;;;;;;5.68;4.63;;;19.90;90.20;;;;;;5071392;28;20032;-73
2022/05/17 08:38:24;;;;;;;5.43;4.18;;;20.10;89.20;;;;;;5073085;28;20088;-73
2022/05/17 08:41:12;;;;;;;7.43;3.70;;;20.40;88.50;;;;;;5075288;28;20076;-72
2022/05/17 08:44:02;;;;;;;7.53;4.05;;;20.70;87.30;;;;;;5063945;28;20270;-72
2022/05/17 08:47:11;;;;;;;7.82;4.15;;;21.00;86.50;;;;;;5067384;28;20044;-72
2022/05/17 08:49:58;;;;;;;9.30;4.03;;;21.00;85.30;;;;;;5072925;28;20028;-71
2022/05/17 08:52:26;;;;;;;6.22;3.95;;;21.10;84.70;;;;;;5072032;28;20039;-74
2022/05/17 08:55:11;;;;;;;9.30;4.18;;;21.10;84.50;;;;;;5075267;28;20028;-71
2022/05/17 08:57:42;;;;;;;7.85;4.20;;;21.20;84.30;;;;;;5063452;28;20846;-68
2022/05/17 09:00:27;;;;;;;7.13;4.57;;;21.30;82.00;;;;;;5075270;28;20028;-70
2022/05/17 09:03:01;;;;;;;5.65;4.13;;;21.50;81.60;;;;;;5073680;28;20024;-70
2022/05/17 09:05:54;;;;;;;13.60;4.50;;;21.80;82.10;;;;;;5069967;28;20523;-73
2022/05/17 09:08:41;;;;;;;10.30;4.88;;;22.20;81.70;;;;;;5074032;28;20143;-68
2022/05/17 09:11:19;;;;;;;8.50;4.28;;;22.50;79.00;;;;;;5067338;28;20109;-72
2022/05/17 09:14:02;;;;;;;4.57;3.42;;;22.30;78.90;;;;;;5091272;28;20042;-71
2022/05/17 09:20:03;;;;;;;4.72;3.17;;;22.50;79.50;;;;;;5753027;23;20077;-72
2022/05/17 09:22:29;;;;;;;6.40;3.53;;;22.60;79.40;;;;;;4945325;28;20524;-72
2022/05/17 09:24:56;;;;;;;6.53;3.50;;;23.00;79.10;;;;;;4977167;28;20034;-70
2022/05/17 09:27:34;;;;;;;8.07;3.95;;;23.30;78.30;;;;;;4973702;28;20037;-71
2022/05/17 09:30:23;;;;;;;5.60;3.17;;;23.40;73.40;;;;;;4978851;28;20036;-72
2022/05/17 09:33:03;;;;;;;11.10;4.18;;;23.40;73.20;;;;;;4976025;28;20489;-72
2022/05/17 09:35:30;;;;;;;6.70;4.03;;;23.60;72.10;;;;;;4977267;28;20061;-72
2022/05/17 09:37:59;;;;;;;4.70;3.13;;;23.70;70.90;;;;;;4975421;28;20046;-71
2022/05/17 09:40:31;;;;;;;8.15;3.20;;;23.70;72.10;;;;;;4977260;28;20065;-71
2022/05/17 09:42:57;;;;;;;4.22;3.55;;;23.60;71.90;;;;;;4975395;28;20030;-71
2022/05/17 09:46:18;;;;;;;6.10;3.20;;;23.50;73.40;;;;;;4972259;28;20035;-73
2022/05/17 09:54:37;;;;;;;5.50;3.38;;;23.40;74.30;;;;;;4982380;28;20064;-72
2022/05/17 09:57:16;;;;;;;5.82;3.65;;;23.40;73.00;;;;;;4977861;28;20034;-74
2022/05/17 09:59:44;;;;;;;4.57;3.05;;;23.30;74.80;;;;;;4974857;28;20478;-72
2022/05/17 10:02:37;;;;;;;4.68;3.22;;;23.50;75.20;;;;;;4976370;28;20034;-72
2022/05/17 10:05:23;;;;;;;5.00;3.30;;;23.80;74.20;;;;;;4980186;28;20034;-72
2022/05/17 10:07:50;;;;;;;;;;;24.00;72.30;;;;;;4979805;28;20036;-72
2022/05/17 10:10:35;;;;;;;5.00;3.15;;;23.90;69.80;;;;;;4982895;28;19941;-72
2022/05/17 10:13:32;;;;;;;5.30;2.78;;;23.70;69.80;;;;;;4980615;28;20030;-72
2022/05/17 10:16:02;;;;;;;;;;;23.40;72.20;;;;;;4977862;28;20038;-72
2022/05/17 10:18:30;;;;;;;6.63;3.35;;;23.20;73.30;;;;;;4972214;28;20005;-71
2022/05/17 10:21:05;;;;;;;5.45;3.05;;;23.00;74.10;;;;;;4983355;28;20121;-72
2022/05/17 10:23:54;;;;;;;5.23;2.83;;;22.90;75.40;;;;;;4978481;28;20433;-71
2022/05/17 10:26:26;;;;;;;6.38;3.60;;;22.90;76.70;;;;;;4983544;28;20403;-72
2022/05/17 10:29:28;;;;;;;5.13;2.88;;;23.00;74.20;;;;;;4977470;28;20490;-72
2022/05/17 10:31:57;;;;;;;4.95;2.83;;;23.30;73.80;;;;;;4981340;28;20030;-72
2022/05/17 10:34:30;;;;;;;4.90;2.85;;;23.80;72.60;;;;;;4971531;28;20038;-72
2022/05/17 10:36:59;;;;;;;8.18;2.70;;;24.30;69.10;;;;;;4979776;28;20044;-72
2022/05/17 10:39:49;;;;;;;3.13;2.53;;;24.60;67.30;;;;;;4965151;28;20034;-72
2022/05/17 10:42:15;;;;;;;6.43;2.75;;;24.90;68.10;;;;;;4981135;28;20045;-71
2022/05/17 10:44:47;;;;;;;5.90;2.30;;;25.10;64.90;;;;;;4965448;28;20030;-72
2022/05/17 10:47:20;;;;;;;4.05;2.03;;;25.10;65.20;;;;;;4965049;28;20096;-72
2022/05/17 10:50:14;;;;;;;3.85;2.35;;;25.10;63.80;;;;;;4977518;28;20038;-72
2022/05/17 10:52:58;;;;;;;6.18;2.72;;;25.10;66.60;;;;;;4976554;28;20034;-72
2022/05/17 10:55:35;;;;;;;4.30;2.05;;;25.10;64.80;;;;;;4979879;28;20060;-72
2022/05/17 10:58:10;;;;;;;4.55;2.30;;;25.20;65.00;;;;;;4979380;28;20033;-71
2022/05/17 11:00:47;;;;;;;6.07;2.20;;;25.20;63.50;;;;;;4978338;28;20030;-72
2022/05/17 11:03:27;;;;;;;2.80;2.15;;;25.10;62.30;;;;;;4973552;28;20799;-72
2022/05/17 11:06:05;;;;;;;3.88;2.33;;;24.90;64.70;;;;;;4975229;28;20082;-70
2022/05/17 11:08:40;;;;;;;3.22;2.65;;;24.70;64.80;;;;;;4978763;28;20126;-71
2022/05/17 11:11:30;;;;;;;2.40;2.20;;;24.50;66.10;;;;;;4963041;28;20075;-71
2022/05/17 11:14:10;;;;;;;4.78;2.00;;;24.30;66.90;;;;;;4978368;28;20030;-72
2022/05/17 11:16:58;;;;;;;6.30;2.35;;;24.20;66.00;;;;;;4975444;28;20068;-71
2022/05/17 11:19:51;;;;;;;3.08;1.90;;;24.10;67.10;;;;;;4982765;28;20023;-69
2022/05/17 11:22:35;;;;;;;3.78;2.00;;;24.10;69.30;;;;;;4975117;28;20223;-72
2022/05/17 11:25:10;;;;;;;3.25;2.38;;;24.00;68.90;;;;;;4977896;28;20038;-72
2022/05/17 11:27:38;;;;;;;4.03;2.40;;;24.00;67.60;;;;;;4975518;28;20089;-72
2022/05/17 11:30:16;;;;;;;5.68;2.10;;;23.90;69.60;;;;;;4963310;28;20050;-71
2022/05/17 11:33:25;;;;;;;3.95;2.17;;;23.80;70.00;;;;;;4980638;28;20026;-71
2022/05/17 11:36:04;;;;;;;2.88;2.00;;;23.60;69.00;;;;;;4970965;28;20117;-72
2022/05/17 11:38:36;;;;;;;3.42;2.20;;;23.30;68.10;;;;;;4975033;28;20544;-71
2022/05/17 11:41:41;;;;;;;3.25;2.10;;;23.10;71.80;;;;;;4978082;28;20154;-69
2022/05/17 11:44:38;;;;;;;3.20;2.20;;;23.00;72.80;;;;;;4977509;28;20035;-72
2022/05/17 11:47:27;;;;;;;3.42;1.88;;;22.90;72.40;;;;;;4979897;28;20077;-68
2022/05/17 11:50:12;;;;;;;2.42;1.83;;;22.90;74.50;;;;;;4972701;28;20062;-71
2022/05/17 11:52:38;;;;;;;3.33;2.28;;;23.00;76.00;;;;;;4973815;28;20458;-71
2022/05/17 11:55:05;;;;;;;3.28;2.30;;;23.10;74.70;;;;;;4960497;28;20105;-71
2022/05/17 11:57:31;;;;;;;3.42;2.00;;;23.10;73.60;;;;;;4980270;28;20034;-70
2022/05/17 12:00:06;;;;;;;3.72;2.20;;;23.00;73.10;;;;;;4973402;28;20025;-71
2022/05/17 12:02:41;;;;;;;6.88;2.72;;;23.00;71.70;;;;;;4979102;28;20041;-71
2022/05/17 12:05:11;;;;;;;2.25;1.67;;;23.00;71.20;;;;;;4975967;28;20026;-70
2022/05/17 12:07:37;;;;;;;2.95;2.15;;;23.00;70.90;;;;;;4962848;28;20753;-71
2022/05/17 12:10:14;;;;;;;4.80;2.28;;;23.00;70.50;;;;;;4963582;28;20037;-71
2022/05/17 12:12:59;;;;;;;2.30;1.73;;;23.10;69.80;;;;;;4975924;28;20038;-71
2022/05/17 12:15:50;;;;;;;2.57;1.73;;;23.30;70.50;;;;;;4975354;28;20023;-68
2022/05/17 12:18:40;;;;;;;2.90;1.77;;;23.30;69.50;;;;;;4964226;28;20041;-71
2022/05/17 12:21:17;;;;;;;3.70;1.70;;;23.40;71.00;;;;;;4975058;28;20473;-68
2022/05/17 12:24:10;;;;;;;3.17;2.00;;;23.60;70.80;;;;;;4951315;28;20038;-71
2022/05/17 12:27:37;;;;;;;4.80;1.60;;;23.60;69.00;;;;;;4971015;28;20039;-71
2022/05/17 12:33:29;;;;;;;1.90;1.60;;;23.70;67.90;;;;;;4974947;28;20030;-69
2022/05/17 12:36:12;;;;;;;2.85;1.77;;;23.80;67.80;;;;;;4973530;28;20034;-72
2022/05/17 12:44:17;;;;;;;2.70;1.88;;;24.10;65.50;;;;;;4975949;28;20375;-72
2022/05/17 12:46:45;;;;;;;3.03;1.65;;;23.90;68.10;;;;;;4960939;28;20046;-71
2022/05/17 12:49:22;;;;;;;2.20;1.52;;;23.90;68.20;;;;;;4978504;28;20030;-69
2022/05/17 12:51:52;;;;;;;5.70;2.50;;;23.90;69.10;;;;;;4970914;28;20474;-71
2022/05/17 12:54:22;;;;;;;3.88;1.88;;;23.90;68.10;;;;;;4973921;28;20073;-70
2022/05/17 12:56:48;;;;;;;2.42;1.77;;;23.90;67.90;;;;;;4973580;28;20097;-69
2022/05/17 12:59:24;;;;;;;3.00;1.35;;;23.90;68.60;;;;;;4977504;28;20042;-70
2022/05/17 13:02:00;;;;;;;3.05;1.70;;;23.80;67.80;;;;;;4978800;28;20045;-70
2022/05/17 13:04:32;;;;;;;2.40;1.65;;;23.80;68.10;;;;;;4980369;28;20042;-69
2022/05/17 13:07:16;;;;;;;2.15;1.48;;;23.80;67.30;;;;;;4980057;28;20034;-69
2022/05/17 13:10:04;;;;;;;3.10;1.48;;;23.80;65.80;;;;;;4971588;28;20488;-69
2022/05/17 13:12:35;;;;;;;2.78;1.50;;;23.80;67.00;;;;;;4971613;28;20155;-70
2022/05/17 13:15:05;;;;;;;1.60;1.40;;;23.90;67.50;;;;;;4976510;28;20104;-70
2022/05/17 13:17:34;;;;;;;3.25;1.65;;;24.00;66.50;;;;;;4978553;28;20038;-70
2022/05/17 13:20:13;;;;;;;1.63;1.40;;;24.10;66.50;;;;;;4972864;28;20117;-71
2022/05/17 13:22:44;;;;;;;2.67;1.50;;;24.20;66.40;;;;;;4973067;28;20205;-71
2022/05/17 13:25:17;;;;;;;4.10;1.60;;;24.30;65.80;;;;;;4980168;28;20042;-71
2022/05/17 13:27:52;;;;;;;3.22;2.60;;;24.50;64.90;;;;;;4971559;28;20030;-70
2022/05/17 13:30:25;;;;;;;1.50;1.40;;;24.60;65.80;;;;;;4977444;28;20041;-71
2022/05/17 13:32:51;;;;;;;1.80;1.38;;;24.70;63.80;;;;;;4977100;28;20023;-68
2022/05/17 13:35:23;;;;;;;2.78;1.48;;;24.70;61.70;;;;;;4962389;28;20034;-70
2022/05/17 13:38:11;;;;;;;3.40;2.47;;;24.70;63.20;;;;;;4979283;28;20393;-71
2022/05/17 13:40:52;;;;;;;7.15;4.57;;;24.50;64.80;;;;;;4973949;28;20041;-70